sensor_id;sensor_type;location;lat;lon;timestamp;temperature;humidity
1155;DHT22;566;48.414;9.118;2022-11-20T00:01:23;3.60;94.30
1155;DHT22;566;48.414;9.118;2022-11-20T00:03:50;3.60;92.90
1155;DHT22;566;48.414;9.118;2022-11-20T00:06:18;3.60;93.50
1155;DHT22;566;48.414;9.118;2022-11-20T00:08:44;3.60;92.60
1155;DHT22;566;48.414;9.118;2022-11-20T00:13:37;3.60;91.60
1155;DHT22;566;48.414;9.118;2022-11-20T00:16:05;3.60;91.30
1155;DHT22;566;48.414;9.118;2022-11-20T00:18:32;3.60;90.90
1155;DHT22;566;48.414;9.118;2022-11-20T00:21:03;3.60;91.20
1155;DHT22;566;48.414;9.118;2022-11-20T00:23:29;3.60;90.30
1155;DHT22;566;48.414;9.118;2022-11-20T00:25:55;3.70;90.70
1155;DHT22;566;48.414;9.118;2022-11-20T00:28:20;3.60;91.20
1155;DHT22;566;48.414;9.118;2022-11-20T00:30:46;3.60;91.50
1155;DHT22;566;48.414;9.118;2022-11-20T00:33:11;3.60;92.00
1155;DHT22;566;48.414;9.118;2022-11-20T00:35:37;3.70;91.50
1155;DHT22;566;48.414;9.118;2022-11-20T00:38:03;3.70;91.60
1155;DHT22;566;48.414;9.118;2022-11-20T00:40:28;3.70;92.00
1155;DHT22;566;48.414;9.118;2022-11-20T00:42:54;3.70;91.80
1155;DHT22;566;48.414;9.118;2022-11-20T00:45:20;3.70;91.30
1155;DHT22;566;48.414;9.118;2022-11-20T00:47:45;3.60;91.10
1155;DHT22;566;48.414;9.118;2022-11-20T00:50:11;3.60;91.10
1155;DHT22;566;48.414;9.118;2022-11-20T00:52:37;3.60;92.00
1155;DHT22;566;48.414;9.118;2022-11-20T00:55:03;3.60;91.80
1155;DHT22;566;48.414;9.118;2022-11-20T00:57:29;3.50;91.30
1155;DHT22;566;48.414;9.118;2022-11-20T00:59:55;3.50;91.60
1155;DHT22;566;48.414;9.118;2022-11-20T01:02:20;3.50;91.70
1155;DHT22;566;48.414;9.118;2022-11-20T01:04:46;3.60;93.00
1155;DHT22;566;48.414;9.118;2022-11-20T01:07:12;3.60;93.90
1155;DHT22;566;48.414;9.118;2022-11-20T01:09:37;3.50;93.60
1155;DHT22;566;48.414;9.118;2022-11-20T01:12:03;3.50;93.60
1155;DHT22;566;48.414;9.118;2022-11-20T01:14:29;3.60;93.30
1155;DHT22;566;48.414;9.118;2022-11-20T01:16:54;3.70;94.70
1155;DHT22;566;48.414;9.118;2022-11-20T01:19:22;3.70;95.10
1155;DHT22;566;48.414;9.118;2022-11-20T01:21:50;3.70;95.20
1155;DHT22;566;48.414;9.118;2022-11-20T01:24:18;3.60;94.80
1155;DHT22;566;48.414;9.118;2022-11-20T01:26:46;3.60;94.70
1155;DHT22;566;48.414;9.118;2022-11-20T01:29:18;3.70;93.90
1155;DHT22;566;48.414;9.118;2022-11-20T01:31:44;3.70;94.10
1155;DHT22;566;48.414;9.118;2022-11-20T01:34:15;3.70;94.10
1155;DHT22;566;48.414;9.118;2022-11-20T01:36:42;3.70;94.10
1155;DHT22;566;48.414;9.118;2022-11-20T01:39:20;3.70;94.70
1155;DHT22;566;48.414;9.118;2022-11-20T01:41:47;3.70;94.20
1155;DHT22;566;48.414;9.118;2022-11-20T01:47:44;3.80;95.50
1155;DHT22;566;48.414;9.118;2022-11-20T01:50:25;3.80;96.20
1155;DHT22;566;48.414;9.118;2022-11-20T01:55:24;4.00;97.70
1155;DHT22;566;48.414;9.118;2022-11-20T01:57:51;4.00;98.00
1155;DHT22;566;48.414;9.118;2022-11-20T02:00:19;4.10;98.00
1155;DHT22;566;48.414;9.118;2022-11-20T02:02:51;4.10;98.00
1155;DHT22;566;48.414;9.118;2022-11-20T02:05:28;4.20;98.00
1155;DHT22;566;48.414;9.118;2022-11-20T02:07:57;4.20;98.00
1155;DHT22;566;48.414;9.118;2022-11-20T02:10:23;4.20;98.00
1155;DHT22;566;48.414;9.118;2022-11-20T02:12:49;4.30;98.00
1155;DHT22;566;48.414;9.118;2022-11-20T02:15:34;4.40;98.00
1155;DHT22;566;48.414;9.118;2022-11-20T02:18:00;4.40;98.00
1155;DHT22;566;48.414;9.118;2022-11-20T02:20:29;4.50;98.00
1155;DHT22;566;48.414;9.118;2022-11-20T02:22:59;4.60;98.00
1155;DHT22;566;48.414;9.118;2022-11-20T02:25:29;4.70;98.00
1155;DHT22;566;48.414;9.118;2022-11-20T02:27:56;4.70;98.00
1155;DHT22;566;48.414;9.118;2022-11-20T02:30:21;4.70;98.00
1155;DHT22;566;48.414;9.118;2022-11-20T02:32:47;4.80;98.00
1155;DHT22;566;48.414;9.118;2022-11-20T02:37:47;4.70;98.00
1155;DHT22;566;48.414;9.118;2022-11-20T02:40:13;4.70;98.00
1155;DHT22;566;48.414;9.118;2022-11-20T02:42:39;4.70;98.00
1155;DHT22;566;48.414;9.118;2022-11-20T02:45:05;4.70;98.00
1155;DHT22;566;48.414;9.118;2022-11-20T02:47:34;4.70;98.00
1155;DHT22;566;48.414;9.118;2022-11-20T02:50:00;4.70;98.00
1155;DHT22;566;48.414;9.118;2022-11-20T02:52:26;4.70;98.00
1155;DHT22;566;48.414;9.118;2022-11-20T02:54:52;4.70;98.00
1155;DHT22;566;48.414;9.118;2022-11-20T02:57:18;4.70;98.00
1155;DHT22;566;48.414;9.118;2022-11-20T02:59:43;4.70;98.00
1155;DHT22;566;48.414;9.118;2022-11-20T03:02:09;4.60;98.00
1155;DHT22;566;48.414;9.118;2022-11-20T03:04:35;4.60;98.00
1155;DHT22;566;48.414;9.118;2022-11-20T03:07:00;4.60;98.00
1155;DHT22;566;48.414;9.118;2022-11-20T03:09:26;4.60;98.00
1155;DHT22;566;48.414;9.118;2022-11-20T03:11:52;4.70;98.00
1155;DHT22;566;48.414;9.118;2022-11-20T03:14:17;4.70;98.00
1155;DHT22;566;48.414;9.118;2022-11-20T03:16:43;4.60;98.00
1155;DHT22;566;48.414;9.118;2022-11-20T03:19:09;4.50;98.00
1155;DHT22;566;48.414;9.118;2022-11-20T03:21:35;4.50;98.00
1155;DHT22;566;48.414;9.118;2022-11-20T03:24:01;4.50;98.00
1155;DHT22;566;48.414;9.118;2022-11-20T03:26:28;4.40;98.00
1155;DHT22;566;48.414;9.118;2022-11-20T03:28:58;4.40;98.00
1155;DHT22;566;48.414;9.118;2022-11-20T03:31:28;4.30;98.00
1155;DHT22;566;48.414;9.118;2022-11-20T03:33:54;4.20;98.00
1155;DHT22;566;48.414;9.118;2022-11-20T03:36:21;4.10;98.00
1155;DHT22;566;48.414;9.118;2022-11-20T03:38:47;4.00;98.00
1155;DHT22;566;48.414;9.118;2022-11-20T03:41:16;3.90;98.00
1155;DHT22;566;48.414;9.118;2022-11-20T03:43:47;4.00;98.00
1155;DHT22;566;48.414;9.118;2022-11-20T03:46:13;4.00;98.00
1155;DHT22;566;48.414;9.118;2022-11-20T03:48:39;3.90;98.00
1155;DHT22;566;48.414;9.118;2022-11-20T03:51:16;3.80;98.00
1155;DHT22;566;48.414;9.118;2022-11-20T03:53:44;3.60;98.00
1155;DHT22;566;48.414;9.118;2022-11-20T03:56:11;3.60;98.00
1155;DHT22;566;48.414;9.118;2022-11-20T03:58:38;3.70;98.00
1155;DHT22;566;48.414;9.118;2022-11-20T04:01:11;3.90;98.00
1155;DHT22;566;48.414;9.118;2022-11-20T04:03:38;4.00;98.00
1155;DHT22;566;48.414;9.118;2022-11-20T04:08:38;4.40;98.00
1155;DHT22;566;48.414;9.118;2022-11-20T04:11:15;4.50;98.00
1155;DHT22;566;48.414;9.118;2022-11-20T04:13:42;4.50;98.00
1155;DHT22;566;48.414;9.118;2022-11-20T04:16:09;4.60;98.00
1155;DHT22;566;48.414;9.118;2022-11-20T04:18:35;4.60;98.00
1155;DHT22;566;48.414;9.118;2022-11-20T04:21:02;4.60;98.00
1155;DHT22;566;48.414;9.118;2022-11-20T04:23:28;4.60;98.00
1155;DHT22;566;48.414;9.118;2022-11-20T04:25:53;4.70;98.00
1155;DHT22;566;48.414;9.118;2022-11-20T04:28:19;4.60;98.00
1155;DHT22;566;48.414;9.118;2022-11-20T04:30:45;4.60;98.00
1155;DHT22;566;48.414;9.118;2022-11-20T04:33:11;4.60;98.00
1155;DHT22;566;48.414;9.118;2022-11-20T04:35:37;4.60;98.00
1155;DHT22;566;48.414;9.118;2022-11-20T04:38:03;4.70;98.00
1155;DHT22;566;48.414;9.118;2022-11-20T04:40:30;4.70;98.00
1155;DHT22;566;48.414;9.118;2022-11-20T04:42:56;4.80;98.00
1155;DHT22;566;48.414;9.118;2022-11-20T04:45:24;4.80;98.00
1155;DHT22;566;48.414;9.118;2022-11-20T04:47:50;4.70;98.00
1155;DHT22;566;48.414;9.118;2022-11-20T04:50:16;4.60;98.00
1155;DHT22;566;48.414;9.118;2022-11-20T04:52:41;4.60;98.00
1155;DHT22;566;48.414;9.118;2022-11-20T04:55:07;4.60;98.00
1155;DHT22;566;48.414;9.118;2022-11-20T04:57:33;4.60;98.00
1155;DHT22;566;48.414;9.118;2022-11-20T04:59:58;4.60;98.00
1155;DHT22;566;48.414;9.118;2022-11-20T05:02:24;4.60;98.00
1155;DHT22;566;48.414;9.118;2022-11-20T05:04:52;4.60;98.00
1155;DHT22;566;48.414;9.118;2022-11-20T05:07:18;4.60;98.00
1155;DHT22;566;48.414;9.118;2022-11-20T05:09:44;4.50;98.00
1155;DHT22;566;48.414;9.118;2022-11-20T05:12:10;4.50;98.00
1155;DHT22;566;48.414;9.118;2022-11-20T05:14:35;4.50;98.00
1155;DHT22;566;48.414;9.118;2022-11-20T05:17:04;4.50;98.00
1155;DHT22;566;48.414;9.118;2022-11-20T05:19:29;4.50;98.00
1155;DHT22;566;48.414;9.118;2022-11-20T05:21:55;4.50;98.00
1155;DHT22;566;48.414;9.118;2022-11-20T05:24:21;4.40;98.00
1155;DHT22;566;48.414;9.118;2022-11-20T05:26:47;4.30;98.00
1155;DHT22;566;48.414;9.118;2022-11-20T05:29:13;4.30;98.00
1155;DHT22;566;48.414;9.118;2022-11-20T05:31:40;4.30;98.00
1155;DHT22;566;48.414;9.118;2022-11-20T05:34:06;4.20;98.00
1155;DHT22;566;48.414;9.118;2022-11-20T05:36:33;4.10;98.00
1155;DHT22;566;48.414;9.118;2022-11-20T05:38:58;4.00;98.00
1155;DHT22;566;48.414;9.118;2022-11-20T05:41:24;3.90;98.00
1155;DHT22;566;48.414;9.118;2022-11-20T05:43:50;3.90;98.00
1155;DHT22;566;48.414;9.118;2022-11-20T05:46:19;3.80;98.00
1155;DHT22;566;48.414;9.118;2022-11-20T05:48:45;3.90;98.00
1155;DHT22;566;48.414;9.118;2022-11-20T05:51:14;3.90;98.00
1155;DHT22;566;48.414;9.118;2022-11-20T05:53:40;4.00;98.00
1155;DHT22;566;48.414;9.118;2022-11-20T05:56:09;4.10;98.00
1155;DHT22;566;48.414;9.118;2022-11-20T05:58:36;4.10;98.00
1155;DHT22;566;48.414;9.118;2022-11-20T06:01:12;4.10;98.00
1155;DHT22;566;48.414;9.118;2022-11-20T06:03:38;4.10;98.00
1155;DHT22;566;48.414;9.118;2022-11-20T06:06:05;4.10;98.00
1155;DHT22;566;48.414;9.118;2022-11-20T06:08:31;4.10;98.00
1155;DHT22;566;48.414;9.118;2022-11-20T06:10:57;4.10;98.00
1155;DHT22;566;48.414;9.118;2022-11-20T06:13:23;4.20;98.00
1155;DHT22;566;48.414;9.118;2022-11-20T06:15:52;4.20;98.00
1155;DHT22;566;48.414;9.118;2022-11-20T06:18:19;4.20;98.00
1155;DHT22;566;48.414;9.118;2022-11-20T06:20:45;4.20;98.00
1155;DHT22;566;48.414;9.118;2022-11-20T06:23:13;4.30;98.00
1155;DHT22;566;48.414;9.118;2022-11-20T06:25:40;4.20;98.00
1155;DHT22;566;48.414;9.118;2022-11-20T06:28:07;4.30;98.00
1155;DHT22;566;48.414;9.118;2022-11-20T06:30:32;4.30;98.00
1155;DHT22;566;48.414;9.118;2022-11-20T06:32:58;4.30;98.00
1155;DHT22;566;48.414;9.118;2022-11-20T06:35:24;4.20;98.00
1155;DHT22;566;48.414;9.118;2022-11-20T06:37:50;4.20;98.00
1155;DHT22;566;48.414;9.118;2022-11-20T06:40:16;4.30;98.00
1155;DHT22;566;48.414;9.118;2022-11-20T06:42:41;4.40;98.00
1155;DHT22;566;48.414;9.118;2022-11-20T06:45:08;4.40;98.00
1155;DHT22;566;48.414;9.118;2022-11-20T06:47:36;4.40;98.00
1155;DHT22;566;48.414;9.118;2022-11-20T06:50:02;4.40;98.00
1155;DHT22;566;48.414;9.118;2022-11-20T06:52:27;4.40;98.00
1155;DHT22;566;48.414;9.118;2022-11-20T06:54:53;4.30;98.00
1155;DHT22;566;48.414;9.118;2022-11-20T06:57:22;4.30;98.00
1155;DHT22;566;48.414;9.118;2022-11-20T06:59:48;4.50;98.00
1155;DHT22;566;48.414;9.118;2022-11-20T07:02:22;4.60;98.00
1155;DHT22;566;48.414;9.118;2022-11-20T07:04:48;4.60;98.00
1155;DHT22;566;48.414;9.118;2022-11-20T07:07:13;4.60;98.00
1155;DHT22;566;48.414;9.118;2022-11-20T07:09:39;4.70;98.00
1155;DHT22;566;48.414;9.118;2022-11-20T07:12:05;4.70;98.00
1155;DHT22;566;48.414;9.118;2022-11-20T07:14:30;4.80;98.00
1155;DHT22;566;48.414;9.118;2022-11-20T07:16:56;4.80;98.00
1155;DHT22;566;48.414;9.118;2022-11-20T07:19:24;4.80;98.00
1155;DHT22;566;48.414;9.118;2022-11-20T07:21:50;4.80;98.00
1155;DHT22;566;48.414;9.118;2022-11-20T07:24:16;4.70;98.00
1155;DHT22;566;48.414;9.118;2022-11-20T07:26:41;4.70;98.00
1155;DHT22;566;48.414;9.118;2022-11-20T07:29:07;4.80;98.00
1155;DHT22;566;48.414;9.118;2022-11-20T07:31:32;4.80;98.00
1155;DHT22;566;48.414;9.118;2022-11-20T07:33:58;4.80;98.00
1155;DHT22;566;48.414;9.118;2022-11-20T07:36:24;4.90;98.00
1155;DHT22;566;48.414;9.118;2022-11-20T07:38:49;4.90;98.00
1155;DHT22;566;48.414;9.118;2022-11-20T07:41:15;4.90;98.00
1155;DHT22;566;48.414;9.118;2022-11-20T07:43:40;4.90;98.00
1155;DHT22;566;48.414;9.118;2022-11-20T07:46:06;4.90;98.00
1155;DHT22;566;48.414;9.118;2022-11-20T07:48:32;4.80;98.00
1155;DHT22;566;48.414;9.118;2022-11-20T07:50:58;4.80;98.00
1155;DHT22;566;48.414;9.118;2022-11-20T07:53:24;4.80;98.00
1155;DHT22;566;48.414;9.118;2022-11-20T07:55:50;5.00;98.00
1155;DHT22;566;48.414;9.118;2022-11-20T07:58:18;5.10;98.00
1155;DHT22;566;48.414;9.118;2022-11-20T08:00:44;5.20;98.00
1155;DHT22;566;48.414;9.118;2022-11-20T08:03:10;5.40;98.00
1155;DHT22;566;48.414;9.118;2022-11-20T08:05:36;5.50;98.00
1155;DHT22;566;48.414;9.118;2022-11-20T08:08:02;5.60;98.00
1155;DHT22;566;48.414;9.118;2022-11-20T08:10:31;5.70;98.00
1155;DHT22;566;48.414;9.118;2022-11-20T08:12:57;5.70;98.00
1155;DHT22;566;48.414;9.118;2022-11-20T08:15:41;5.70;98.00
1155;DHT22;566;48.414;9.118;2022-11-20T08:18:11;5.60;98.00
1155;DHT22;566;48.414;9.118;2022-11-20T08:20:38;5.60;98.00
1155;DHT22;566;48.414;9.118;2022-11-20T08:23:07;5.70;98.00
1155;DHT22;566;48.414;9.118;2022-11-20T08:25:34;5.60;98.00
1155;DHT22;566;48.414;9.118;2022-11-20T08:28:01;5.50;98.00
1155;DHT22;566;48.414;9.118;2022-11-20T08:30:28;5.50;98.00
1155;DHT22;566;48.414;9.118;2022-11-20T08:32:54;5.60;98.00
1155;DHT22;566;48.414;9.118;2022-11-20T08:35:26;5.70;98.00
1155;DHT22;566;48.414;9.118;2022-11-20T08:37:52;5.80;98.00
1155;DHT22;566;48.414;9.118;2022-11-20T08:40:17;5.80;98.00
1155;DHT22;566;48.414;9.118;2022-11-20T08:42:47;5.90;98.00
1155;DHT22;566;48.414;9.118;2022-11-20T08:45:14;6.00;98.00
1155;DHT22;566;48.414;9.118;2022-11-20T08:47:40;6.00;98.00
1155;DHT22;566;48.414;9.118;2022-11-20T08:50:06;6.00;98.00
1155;DHT22;566;48.414;9.118;2022-11-20T08:52:33;6.00;98.00
1155;DHT22;566;48.414;9.118;2022-11-20T08:54:58;5.90;97.70
1155;DHT22;566;48.414;9.118;2022-11-20T08:57:24;5.80;98.00
1155;DHT22;566;48.414;9.118;2022-11-20T08:59:50;5.80;98.00
1155;DHT22;566;48.414;9.118;2022-11-20T09:02:15;5.80;98.00
1155;DHT22;566;48.414;9.118;2022-11-20T09:04:41;5.80;98.00
1155;DHT22;566;48.414;9.118;2022-11-20T09:07:06;5.80;98.00
1155;DHT22;566;48.414;9.118;2022-11-20T09:09:33;5.80;98.00
1155;DHT22;566;48.414;9.118;2022-11-20T09:11:58;5.80;98.00
1155;DHT22;566;48.414;9.118;2022-11-20T09:14:24;5.90;98.00
1155;DHT22;566;48.414;9.118;2022-11-20T09:16:55;5.80;98.00
1155;DHT22;566;48.414;9.118;2022-11-20T09:19:20;5.80;98.00
1155;DHT22;566;48.414;9.118;2022-11-20T09:21:46;5.70;98.00
1155;DHT22;566;48.414;9.118;2022-11-20T09:24:12;5.80;98.00
1155;DHT22;566;48.414;9.118;2022-11-20T09:26:37;5.70;98.00
1155;DHT22;566;48.414;9.118;2022-11-20T09:29:03;5.70;98.00
1155;DHT22;566;48.414;9.118;2022-11-20T09:31:29;5.60;98.00
1155;DHT22;566;48.414;9.118;2022-11-20T09:33:55;5.50;98.00
1155;DHT22;566;48.414;9.118;2022-11-20T09:36:20;5.50;98.00
1155;DHT22;566;48.414;9.118;2022-11-20T09:38:46;5.50;98.00
1155;DHT22;566;48.414;9.118;2022-11-20T09:41:40;5.50;98.00
1155;DHT22;566;48.414;9.118;2022-11-20T09:44:47;5.40;98.00
1155;DHT22;566;48.414;9.118;2022-11-20T09:50:30;5.50;98.00
1155;DHT22;566;48.414;9.118;2022-11-20T09:55:38;5.50;98.00
1155;DHT22;566;48.414;9.118;2022-11-20T09:58:24;5.50;98.00
1155;DHT22;566;48.414;9.118;2022-11-20T10:00:51;5.50;98.00
1155;DHT22;566;48.414;9.118;2022-11-20T10:03:26;5.50;98.00
1155;DHT22;566;48.414;9.118;2022-11-20T10:05:55;5.50;98.00
1155;DHT22;566;48.414;9.118;2022-11-20T10:08:28;5.40;98.00
1155;DHT22;566;48.414;9.118;2022-11-20T10:11:21;5.40;98.00
1155;DHT22;566;48.414;9.118;2022-11-20T10:25:06;5.30;98.00
1155;DHT22;566;48.414;9.118;2022-11-20T10:32:37;5.30;98.00
1155;DHT22;566;48.414;9.118;2022-11-20T10:37:31;5.30;98.00
1155;DHT22;566;48.414;9.118;2022-11-20T10:40:22;5.30;98.00
1155;DHT22;566;48.414;9.118;2022-11-20T10:42:59;5.30;98.00
1155;DHT22;566;48.414;9.118;2022-11-20T10:45:45;5.30;98.00
1155;DHT22;566;48.414;9.118;2022-11-20T10:50:53;5.30;98.00
1155;DHT22;566;48.414;9.118;2022-11-20T10:56:42;5.30;98.00
1155;DHT22;566;48.414;9.118;2022-11-20T11:01:52;5.30;98.00
1155;DHT22;566;48.414;9.118;2022-11-20T11:06:56;5.30;98.00
1155;DHT22;566;48.414;9.118;2022-11-20T11:09:33;5.30;98.00
1155;DHT22;566;48.414;9.118;2022-11-20T11:12:00;5.30;98.00
1155;DHT22;566;48.414;9.118;2022-11-20T11:14:26;5.30;98.00
1155;DHT22;566;48.414;9.118;2022-11-20T11:16:57;5.20;98.00
1155;DHT22;566;48.414;9.118;2022-11-20T11:19:23;5.20;98.00
1155;DHT22;566;48.414;9.118;2022-11-20T11:21:55;5.30;98.00
1155;DHT22;566;48.414;9.118;2022-11-20T11:24:28;5.30;98.00
1155;DHT22;566;48.414;9.118;2022-11-20T11:27:01;5.40;98.00
1155;DHT22;566;48.414;9.118;2022-11-20T11:29:32;5.40;98.00
1155;DHT22;566;48.414;9.118;2022-11-20T11:32:12;5.40;98.00
1155;DHT22;566;48.414;9.118;2022-11-20T11:34:39;5.50;98.00
1155;DHT22;566;48.414;9.118;2022-11-20T11:37:20;5.60;98.00
1155;DHT22;566;48.414;9.118;2022-11-20T11:39:47;5.70;98.00
1155;DHT22;566;48.414;9.118;2022-11-20T11:42:17;5.70;98.00
1155;DHT22;566;48.414;9.118;2022-11-20T11:44:46;5.50;98.00
1155;DHT22;566;48.414;9.118;2022-11-20T11:52:45;5.70;98.00
1155;DHT22;566;48.414;9.118;2022-11-20T11:58:33;6.00;98.00
1155;DHT22;566;48.414;9.118;2022-11-20T12:01:12;5.90;98.00
1155;DHT22;566;48.414;9.118;2022-11-20T12:04:14;6.10;98.00
1155;DHT22;566;48.414;9.118;2022-11-20T12:06:44;6.90;98.00
1155;DHT22;566;48.414;9.118;2022-11-20T12:09:11;7.10;98.00
1155;DHT22;566;48.414;9.118;2022-11-20T12:17:11;6.70;98.00
1155;DHT22;566;48.414;9.118;2022-11-20T12:19:37;6.80;98.00
1155;DHT22;566;48.414;9.118;2022-11-20T12:27:39;7.70;95.20
1155;DHT22;566;48.414;9.118;2022-11-20T12:30:14;7.80;95.20
1155;DHT22;566;48.414;9.118;2022-11-20T12:38:11;7.20;95.90
1155;DHT22;566;48.414;9.118;2022-11-20T12:43:29;7.30;97.10
1155;DHT22;566;48.414;9.118;2022-11-20T12:46:30;7.70;95.50
1155;DHT22;566;48.414;9.118;2022-11-20T12:54:39;7.90;94.10
1155;DHT22;566;48.414;9.118;2022-11-20T13:00:01;8.60;91.70
1155;DHT22;566;48.414;9.118;2022-11-20T13:05:21;9.40;89.20
1155;DHT22;566;48.414;9.118;2022-11-20T13:07:53;9.00;88.40
1155;DHT22;566;48.414;9.118;2022-11-20T13:16:18;7.60;91.10
1155;DHT22;566;48.414;9.118;2022-11-20T13:18:45;7.00;92.60
1155;DHT22;566;48.414;9.118;2022-11-20T13:21:20;6.80;94.00
1155;DHT22;566;48.414;9.118;2022-11-20T13:23:48;6.70;94.30
1155;DHT22;566;48.414;9.118;2022-11-20T13:26:20;6.60;94.90
1155;DHT22;566;48.414;9.118;2022-11-20T13:28:47;6.50;95.90
1155;DHT22;566;48.414;9.118;2022-11-20T13:31:34;6.40;96.40
1155;DHT22;566;48.414;9.118;2022-11-20T13:34:03;6.40;96.40
1155;DHT22;566;48.414;9.118;2022-11-20T13:36:30;6.50;96.70
1155;DHT22;566;48.414;9.118;2022-11-20T13:38:57;6.50;96.40
1155;DHT22;566;48.414;9.118;2022-11-20T13:41:34;6.60;96.10
1155;DHT22;566;48.414;9.118;2022-11-20T13:46:46;6.40;96.20
1155;DHT22;566;48.414;9.118;2022-11-20T13:49:39;6.30;95.60
1155;DHT22;566;48.414;9.118;2022-11-20T13:55:35;6.00;96.50
1155;DHT22;566;48.414;9.118;2022-11-20T14:00:44;6.60;95.60
1155;DHT22;566;48.414;9.118;2022-11-20T14:03:24;6.80;94.40
1155;DHT22;566;48.414;9.118;2022-11-20T14:06:01;7.00;94.10
1155;DHT22;566;48.414;9.118;2022-11-20T14:08:37;7.10;93.80
1155;DHT22;566;48.414;9.118;2022-11-20T14:13:58;7.20;93.00
1155;DHT22;566;48.414;9.118;2022-11-20T14:16:26;7.00;92.90
1155;DHT22;566;48.414;9.118;2022-11-20T14:18:53;6.90;93.60
1155;DHT22;566;48.414;9.118;2022-11-20T14:21:27;7.00;93.30
1155;DHT22;566;48.414;9.118;2022-11-20T14:24:05;7.10;93.30
1155;DHT22;566;48.414;9.118;2022-11-20T14:26:31;7.20;91.40
1155;DHT22;566;48.414;9.118;2022-11-20T14:28:58;7.20;90.70
1155;DHT22;566;48.414;9.118;2022-11-20T14:31:26;7.20;90.20
1155;DHT22;566;48.414;9.118;2022-11-20T14:33:53;6.90;90.40
1155;DHT22;566;48.414;9.118;2022-11-20T14:36:24;6.60;91.40
1155;DHT22;566;48.414;9.118;2022-11-20T14:38:52;6.50;91.80
1155;DHT22;566;48.414;9.118;2022-11-20T14:41:23;6.40;92.10
1155;DHT22;566;48.414;9.118;2022-11-20T14:44:09;6.20;93.10
1155;DHT22;566;48.414;9.118;2022-11-20T14:46:35;6.10;93.90
1155;DHT22;566;48.414;9.118;2022-11-20T14:49:03;6.00;94.30
1155;DHT22;566;48.414;9.118;2022-11-20T14:51:35;6.00;95.10
1155;DHT22;566;48.414;9.118;2022-11-20T14:54:17;6.00;95.10
1155;DHT22;566;48.414;9.118;2022-11-20T14:56:57;5.90;95.80
1155;DHT22;566;48.414;9.118;2022-11-20T14:59:33;5.90;95.80
1155;DHT22;566;48.414;9.118;2022-11-20T15:02:05;6.00;95.80
1155;DHT22;566;48.414;9.118;2022-11-20T15:04:32;6.10;95.30
1155;DHT22;566;48.414;9.118;2022-11-20T15:06:59;6.10;95.30
1155;DHT22;566;48.414;9.118;2022-11-20T15:09:25;6.10;95.30
1155;DHT22;566;48.414;9.118;2022-11-20T15:11:55;6.10;94.90
1155;DHT22;566;48.414;9.118;2022-11-20T15:14:24;6.10;94.40
1155;DHT22;566;48.414;9.118;2022-11-20T15:16:52;6.10;94.30
1155;DHT22;566;48.414;9.118;2022-11-20T15:19:21;6.00;94.20
1155;DHT22;566;48.414;9.118;2022-11-20T15:21:47;5.80;94.50
1155;DHT22;566;48.414;9.118;2022-11-20T15:24:13;5.70;94.60
1155;DHT22;566;48.414;9.118;2022-11-20T15:26:38;5.70;95.20
1155;DHT22;566;48.414;9.118;2022-11-20T15:29:09;5.50;95.30
1155;DHT22;566;48.414;9.118;2022-11-20T15:31:36;5.50;94.70
1155;DHT22;566;48.414;9.118;2022-11-20T15:34:02;5.50;94.50
1155;DHT22;566;48.414;9.118;2022-11-20T15:36:28;5.50;94.60
1155;DHT22;566;48.414;9.118;2022-11-20T15:38:54;5.30;94.70
1155;DHT22;566;48.414;9.118;2022-11-20T15:41:19;5.30;95.20
1155;DHT22;566;48.414;9.118;2022-11-20T15:43:45;5.20;94.90
1155;DHT22;566;48.414;9.118;2022-11-20T15:46:14;5.20;95.10
1155;DHT22;566;48.414;9.118;2022-11-20T15:48:41;5.20;94.70
1155;DHT22;566;48.414;9.118;2022-11-20T15:53:40;5.00;95.00
1155;DHT22;566;48.414;9.118;2022-11-20T15:56:11;5.00;95.00
1155;DHT22;566;48.414;9.118;2022-11-20T15:58:38;5.20;94.10
1155;DHT22;566;48.414;9.118;2022-11-20T16:01:04;5.20;94.10
1155;DHT22;566;48.414;9.118;2022-11-20T16:03:29;5.20;93.40
1155;DHT22;566;48.414;9.118;2022-11-20T16:05:58;5.10;93.70
1155;DHT22;566;48.414;9.118;2022-11-20T16:08:24;5.10;93.60
1155;DHT22;566;48.414;9.118;2022-11-20T16:10:49;5.20;93.30
1155;DHT22;566;48.414;9.118;2022-11-20T16:13:17;5.20;93.20
1155;DHT22;566;48.414;9.118;2022-11-20T16:16:04;5.30;92.10
1155;DHT22;566;48.414;9.118;2022-11-20T16:18:31;5.30;92.10
1155;DHT22;566;48.414;9.118;2022-11-20T16:20:59;5.40;91.80
1155;DHT22;566;48.414;9.118;2022-11-20T16:23:25;5.40;91.40
1155;DHT22;566;48.414;9.118;2022-11-20T16:25:51;5.50;91.40
1155;DHT22;566;48.414;9.118;2022-11-20T16:28:17;5.50;91.10
1155;DHT22;566;48.414;9.118;2022-11-20T16:30:43;5.50;91.60
1155;DHT22;566;48.414;9.118;2022-11-20T16:33:15;5.40;92.20
1155;DHT22;566;48.414;9.118;2022-11-20T16:35:41;5.40;92.20
1155;DHT22;566;48.414;9.118;2022-11-20T16:38:06;5.40;92.00
1155;DHT22;566;48.414;9.118;2022-11-20T16:40:32;5.50;91.80
1155;DHT22;566;48.414;9.118;2022-11-20T16:43:09;5.50;91.50
1155;DHT22;566;48.414;9.118;2022-11-20T16:45:40;5.50;91.40
1155;DHT22;566;48.414;9.118;2022-11-20T16:48:06;5.50;91.00
1155;DHT22;566;48.414;9.118;2022-11-20T16:50:31;5.60;90.90
1155;DHT22;566;48.414;9.118;2022-11-20T16:52:57;5.60;91.00
1155;DHT22;566;48.414;9.118;2022-11-20T16:55:23;5.60;91.00
1155;DHT22;566;48.414;9.118;2022-11-20T16:57:48;5.60;91.10
1155;DHT22;566;48.414;9.118;2022-11-20T17:00:14;5.60;90.90
1155;DHT22;566;48.414;9.118;2022-11-20T17:02:40;5.60;90.90
1155;DHT22;566;48.414;9.118;2022-11-20T17:05:06;5.60;90.90
1155;DHT22;566;48.414;9.118;2022-11-20T17:07:31;5.60;91.10
1155;DHT22;566;48.414;9.118;2022-11-20T17:09:57;5.60;91.60
1155;DHT22;566;48.414;9.118;2022-11-20T17:12:23;5.60;91.70
1155;DHT22;566;48.414;9.118;2022-11-20T17:14:48;5.60;92.00
1155;DHT22;566;48.414;9.118;2022-11-20T17:17:14;5.60;92.20
1155;DHT22;566;48.414;9.118;2022-11-20T17:19:40;5.60;92.30
1155;DHT22;566;48.414;9.118;2022-11-20T17:22:05;5.60;91.90
1155;DHT22;566;48.414;9.118;2022-11-20T17:24:31;5.70;91.70
1155;DHT22;566;48.414;9.118;2022-11-20T17:26:57;5.70;91.80
1155;DHT22;566;48.414;9.118;2022-11-20T17:29:22;5.70;92.20
1155;DHT22;566;48.414;9.118;2022-11-20T17:31:49;5.70;92.00
1155;DHT22;566;48.414;9.118;2022-11-20T17:34:15;5.60;92.30
1155;DHT22;566;48.414;9.118;2022-11-20T17:36:41;5.60;92.30
1155;DHT22;566;48.414;9.118;2022-11-20T17:39:10;5.70;92.20
1155;DHT22;566;48.414;9.118;2022-11-20T17:41:36;5.70;92.20
1155;DHT22;566;48.414;9.118;2022-11-20T17:44:02;5.60;92.40
1155;DHT22;566;48.414;9.118;2022-11-20T17:46:30;5.60;92.50
1155;DHT22;566;48.414;9.118;2022-11-20T17:49:00;5.60;92.50
1155;DHT22;566;48.414;9.118;2022-11-20T17:51:28;5.70;92.10
1155;DHT22;566;48.414;9.118;2022-11-20T17:53:56;5.70;92.00
1155;DHT22;566;48.414;9.118;2022-11-20T17:56:22;5.70;92.20
1155;DHT22;566;48.414;9.118;2022-11-20T17:59:08;5.70;92.20
1155;DHT22;566;48.414;9.118;2022-11-20T18:01:35;5.70;92.40
1155;DHT22;566;48.414;9.118;2022-11-20T18:04:02;5.70;92.20
1155;DHT22;566;48.414;9.118;2022-11-20T18:06:30;5.70;92.40
1155;DHT22;566;48.414;9.118;2022-11-20T18:09:00;5.70;92.40
1155;DHT22;566;48.414;9.118;2022-11-20T18:11:32;5.70;92.70
1155;DHT22;566;48.414;9.118;2022-11-20T18:13:59;5.70;92.80
1155;DHT22;566;48.414;9.118;2022-11-20T18:16:51;5.70;92.80
1155;DHT22;566;48.414;9.118;2022-11-20T18:19:18;5.70;92.80
1155;DHT22;566;48.414;9.118;2022-11-20T18:21:45;5.70;93.10
1155;DHT22;566;48.414;9.118;2022-11-20T18:24:14;5.70;93.10
1155;DHT22;566;48.414;9.118;2022-11-20T18:26:40;5.70;92.70
1155;DHT22;566;48.414;9.118;2022-11-20T18:29:05;5.70;92.70
1155;DHT22;566;48.414;9.118;2022-11-20T18:31:32;5.70;93.00